Time,TemperatureF,DewpointF,PressureIn,WindDirection,WindDirectionDegrees,WindSpeedMPH,WindSpeedGustMPH,Humidity,HourlyPrecipIn,Conditions,Clouds,dailyrainin,SoftwareType,DateUTC
2013-10-05 00:00:00,56.6,52.8,30.19,South,183,0.0,0.0,87,0.00,,,0.00,Wunderground v.1.15,2013-10-05 04:00:00,
2013-10-05 00:05:00,56.6,52.8,30.19,South,183,0.0,0.0,87,0.00,,,0.00,Wunderground v.1.15,2013-10-05 04:05:00,
2013-10-05 00:10:00,56.5,53.0,30.20,South,183,0.0,0.0,88,0.00,,,0.00,Wunderground v.1.15,2013-10-05 04:10:00,
2013-10-05 00:15:00,56.4,52.9,30.20,South,183,0.0,0.0,88,0.00,,,0.00,Wunderground v.1.15,2013-10-05 04:15:00,
2013-10-05 00:20:00,56.4,52.9,30.20,South,183,0.0,0.0,88,0.00,,,0.00,Wunderground v.1.15,2013-10-05 04:20:00,
2013-10-05 00:30:00,56.4,52.6,30.19,South,183,0.0,0.0,87,0.00,,,0.00,Wunderground v.1.15,2013-10-05 04:30:00,
2013-10-05 00:35:00,56.4,52.3,30.19,East,83,0.0,0.0,86,0.00,,,0.00,Wunderground v.1.15,2013-10-05 04:35:00,
2013-10-05 00:40:00,56.6,52.1,30.19,East,84,0.0,0.0,85,0.00,,,0.00,Wunderground v.1.15,2013-10-05 04:40:00,
2013-10-05 00:45:00,56.8,51.7,30.19,ENE,76,0.0,0.0,83,0.00,,,0.00,Wunderground v.1.15,2013-10-05 04:45:00,
2013-10-05 00:50:00,57.1,51.3,30.20,NE,54,0.0,0.0,81,0.00,,,0.00,Wunderground v.1.15,2013-10-05 04:50:00,
2013-10-05 00:55:00,57.3,51.2,30.20,NE,49,0.0,2.0,80,0.00,,,0.00,Wunderground v.1.15,2013-10-05 04:55:00,
2013-10-05 01:00:00,57.4,51.3,30.20,NE,48,0.0,0.0,80,0.00,,,0.00,Wunderground v.1.15,2013-10-05 05:00:00,
2013-10-05 01:05:00,57.3,51.9,30.20,NE,48,0.0,0.0,82,0.00,,,0.00,Wunderground v.1.15,2013-10-05 05:05:00,
2013-10-05 01:10:00,57.2,51.8,30.20,NE,48,0.0,1.0,82,0.00,,,0.00,Wunderground v.1.15,2013-10-05 05:10:00,
2013-10-05 01:15:00,57.0,51.6,30.20,NE,48,0.0,1.0,82,0.00,,,0.00,Wunderground v.1.15,2013-10-05 05:15:00,
2013-10-05 01:20:00,56.9,52.1,30.20,NE,48,0.0,0.0,84,0.00,,,0.00,Wunderground v.1.15,2013-10-05 05:20:00,
2013-10-05 01:25:00,56.7,51.3,30.21,NE,48,0.0,0.0,82,0.00,,,0.00,Wunderground v.1.15,2013-10-05 05:25:00,
2013-10-05 01:30:00,56.7,48.9,30.20,East,98,1.0,5.0,75,0.00,,,0.00,Wunderground v.1.15,2013-10-05 05:30:00,
2013-10-05 01:35:00,57.1,47.4,30.20,ESE,103,2.0,6.0,70,0.00,,,0.00,Wunderground v.1.15,2013-10-05 05:35:00,
2013-10-05 01:40:00,57.5,47.4,30.19,East,91,3.0,3.0,69,0.00,,,0.00,Wunderground v.1.15,2013-10-05 05:40:00,
2013-10-05 01:45:00,57.6,47.1,30.20,ESE,105,1.0,5.0,68,0.00,,,0.00,Wunderground v.1.15,2013-10-05 05:45:00,
2013-10-05 01:50:00,57.7,46.8,30.20,East,82,2.0,2.0,67,0.00,,,0.00,Wunderground v.1.15,2013-10-05 05:50:00,
2013-10-05 01:55:00,57.7,46.8,30.20,NE,54,3.0,3.0,67,0.00,,,0.00,Wunderground v.1.15,2013-10-05 05:55:00,
2013-10-05 02:00:00,57.6,47.1,30.20,NE,55,2.0,3.0,68,0.00,,,0.00,Wunderground v.1.15,2013-10-05 06:00:00,
2013-10-05 02:10:00,57.3,46.8,30.20,NNE,30,2.0,2.0,68,0.00,,,0.00,Wunderground v.1.15,2013-10-05 06:10:00,
2013-10-05 02:15:00,57.1,47.0,30.21,North,5,2.0,2.0,69,0.00,,,0.00,Wunderground v.1.15,2013-10-05 06:15:00,
2013-10-05 02:25:00,56.8,46.7,30.20,NE,38,1.0,2.0,69,0.00,,,0.00,Wunderground v.1.15,2013-10-05 06:25:00,
2013-10-05 02:30:00,56.8,46.0,30.19,North,9,1.0,1.0,67,0.00,,,0.00,Wunderground v.1.15,2013-10-05 06:30:00,
2013-10-05 02:35:00,56.7,45.5,30.19,NE,50,1.0,1.0,66,0.00,,,0.00,Wunderground v.1.15,2013-10-05 06:35:00,
2013-10-05 02:40:00,56.7,45.5,30.19,ENE,65,1.0,1.0,66,0.00,,,0.00,Wunderground v.1.15,2013-10-05 06:40:00,
2013-10-05 02:45:00,56.6,45.0,30.19,NE,39,1.0,3.0,65,0.00,,,0.00,Wunderground v.1.15,2013-10-05 06:45:00,
2013-10-05 02:50:00,56.6,45.4,30.20,NNE,30,1.0,1.0,66,0.00,,,0.00,Wunderground v.1.15,2013-10-05 06:50:00,
2013-10-05 02:55:00,56.4,44.8,30.20,NNE,21,1.0,2.0,65,0.00,,,0.00,Wunderground v.1.15,2013-10-05 06:55:00,
2013-10-05 03:00:00,56.4,45.2,30.20,ENE,60,1.0,1.0,66,0.00,,,0.00,Wunderground v.1.15,2013-10-05 07:00:00,
2013-10-05 03:05:00,56.3,45.1,30.20,ENE,58,1.0,1.0,66,0.00,,,0.00,Wunderground v.1.15,2013-10-05 07:05:00,
2013-10-05 03:10:00,56.3,45.1,30.20,NNE,24,1.0,1.0,66,0.00,,,0.00,Wunderground v.1.15,2013-10-05 07:10:00,
2013-10-05 03:20:00,56.2,45.4,30.20,NNE,20,0.0,0.0,67,0.00,,,0.00,Wunderground v.1.15,2013-10-05 07:20:00,
2013-10-05 03:30:00,56.0,45.2,30.20,ENE,71,1.0,1.0,67,0.00,,,0.00,Wunderground v.1.15,2013-10-05 07:30:00,
2013-10-05 03:35:00,56.0,45.2,30.21,NE,50,1.0,1.0,67,0.00,,,0.00,Wunderground v.1.15,2013-10-05 07:35:00,
2013-10-05 03:40:00,55.9,44.7,30.21,ENE,61,0.0,1.0,66,0.00,,,0.00,Wunderground v.1.15,2013-10-05 07:40:00,
2013-10-05 03:45:00,55.9,45.1,30.21,NNE,27,1.0,1.0,67,0.00,,,0.00,Wunderground v.1.15,2013-10-05 07:45:00,
2013-10-05 03:50:00,55.8,45.0,30.21,NE,44,1.0,1.0,67,0.00,,,0.00,Wunderground v.1.15,2013-10-05 07:50:00,
2013-10-05 03:55:00,55.7,45.3,30.21,NE,44,0.0,1.0,68,0.00,,,0.00,Wunderground v.1.15,2013-10-05 07:55:00,
2013-10-05 04:00:00,55.5,45.1,30.21,NNE,32,0.0,3.0,68,0.00,,,0.00,Wunderground v.1.15,2013-10-05 08:00:00,
2013-10-05 04:05:00,55.5,44.7,30.21,ENE,74,1.0,3.0,67,0.00,,,0.00,Wunderground v.1.15,2013-10-05 08:05:00,
2013-10-05 04:15:00,55.4,43.8,30.21,NE,38,1.0,2.0,65,0.00,,,0.00,Wunderground v.1.15,2013-10-05 08:15:00,
2013-10-05 04:20:00,55.4,43.4,30.21,NE,36,1.0,2.0,64,0.00,,,0.00,Wunderground v.1.15,2013-10-05 08:20:00,
2013-10-05 04:30:00,55.2,43.6,30.22,ENE,68,2.0,2.0,65,0.00,,,0.00,Wunderground v.1.15,2013-10-05 08:30:00,
2013-10-05 04:35:00,55.1,43.9,30.22,NNE,24,2.0,3.0,66,0.00,,,0.00,Wunderground v.1.15,2013-10-05 08:35:00,
2013-10-05 04:40:00,54.9,44.1,30.22,ENE,60,2.0,4.0,67,0.00,,,0.00,Wunderground v.1.15,2013-10-05 08:40:00,
2013-10-05 04:45:00,54.6,44.6,30.22,NE,40,2.0,4.0,69,0.00,,,0.00,Wunderground v.1.15,2013-10-05 08:45:00,
2013-10-05 04:50:00,54.4,44.1,30.22,NE,34,2.0,2.0,68,0.00,,,0.00,Wunderground v.1.15,2013-10-05 08:50:00,
2013-10-05 04:55:00,54.3,43.2,30.22,NE,46,2.0,2.0,66,0.00,,,0.00,Wunderground v.1.15,2013-10-05 08:55:00,
2013-10-05 05:01:00,54.2,42.7,30.22,East,100,2.0,2.0,65,0.00,,,0.00,Wunderground v.1.15,2013-10-05 09:01:00,
2013-10-05 05:05:00,54.3,42.4,30.22,South,170,2.0,2.0,64,0.00,,,0.00,Wunderground v.1.15,2013-10-05 09:05:00,
2013-10-05 05:10:00,54.3,42.4,30.22,East,86,1.0,2.0,64,0.00,,,0.00,Wunderground v.1.15,2013-10-05 09:10:00,
2013-10-05 05:15:00,54.3,42.4,30.22,ENE,66,1.0,2.0,64,0.00,,,0.00,Wunderground v.1.15,2013-10-05 09:15:00,
2013-10-05 05:25:00,54.2,42.7,30.23,NNE,25,1.0,1.0,65,0.00,,,0.00,Wunderground v.1.15,2013-10-05 09:25:00,
2013-10-05 05:30:00,54.1,42.6,30.23,East,100,0.0,0.0,65,0.00,,,0.00,Wunderground v.1.15,2013-10-05 09:30:00,
2013-10-05 05:35:00,54.0,42.9,30.23,East,100,0.0,0.0,66,0.00,,,0.00,Wunderground v.1.15,2013-10-05 09:35:00,
2013-10-05 05:40:00,54.0,42.5,30.23,East,101,0.0,0.0,65,0.00,,,0.00,Wunderground v.1.15,2013-10-05 09:40:00,
2013-10-05 05:45:00,53.9,42.4,30.23,East,101,0.0,0.0,65,0.00,,,0.00,Wunderground v.1.15,2013-10-05 09:45:00,
2013-10-05 05:50:00,53.9,42.4,30.23,NE,47,0.0,0.0,65,0.00,,,0.00,Wunderground v.1.15,2013-10-05 09:50:00,
2013-10-05 05:55:00,53.9,42.0,30.23,ENE,72,0.0,0.0,64,0.00,,,0.00,Wunderground v.1.15,2013-10-05 09:55:00,
2013-10-05 06:00:00,53.8,42.3,30.23,ENE,71,0.0,0.0,65,0.00,,,0.00,Wunderground v.1.15,2013-10-05 10:00:00,
2013-10-05 06:05:00,53.7,41.8,30.23,ENE,59,1.0,1.0,64,0.00,,,0.00,Wunderground v.1.15,2013-10-05 10:05:00,
2013-10-05 06:10:00,53.7,41.8,30.24,ENE,78,1.0,1.0,64,0.00,,,0.00,Wunderground v.1.15,2013-10-05 10:10:00,
2013-10-05 06:20:00,53.6,41.7,30.24,East,80,0.0,0.0,64,0.00,,,0.00,Wunderground v.1.15,2013-10-05 10:20:00,
2013-10-05 06:25:00,53.5,42.4,30.24,East,80,0.0,0.0,66,0.00,,,0.00,Wunderground v.1.15,2013-10-05 10:25:00,
2013-10-05 06:30:00,53.4,43.1,30.24,East,83,0.0,0.0,68,0.00,,,0.00,Wunderground v.1.15,2013-10-05 10:30:00,
2013-10-05 06:35:00,53.3,42.6,30.24,East,84,0.0,0.0,67,0.00,,,0.00,Wunderground v.1.15,2013-10-05 10:35:00,
2013-10-05 06:40:00,53.2,42.5,30.24,East,87,0.0,0.0,67,0.00,,,0.00,Wunderground v.1.15,2013-10-05 10:40:00,
2013-10-05 06:45:00,53.2,42.1,30.24,East,87,0.0,0.0,66,0.00,,,0.00,Wunderground v.1.15,2013-10-05 10:45:00,
2013-10-05 06:50:00,53.0,42.3,30.24,East,87,0.0,0.0,67,0.00,,,0.00,Wunderground v.1.15,2013-10-05 10:50:00,
2013-10-05 06:55:00,53.0,42.7,30.23,East,87,0.0,0.0,68,0.00,,,0.00,Wunderground v.1.15,2013-10-05 10:55:00,
2013-10-05 07:00:00,52.8,42.5,30.24,East,87,0.0,0.0,68,0.00,,,0.00,Wunderground v.1.15,2013-10-05 11:00:00,
2013-10-05 07:05:00,52.6,41.9,30.24,NE,52,0.0,0.0,67,0.00,,,0.00,Wunderground v.1.15,2013-10-05 11:05:00,
2013-10-05 07:10:00,52.6,42.3,30.25,NE,52,0.0,0.0,68,0.00,,,0.00,Wunderground v.1.15,2013-10-05 11:10:00,
2013-10-05 07:15:00,52.6,43.8,30.25,NE,52,0.0,0.0,72,0.00,,,0.00,Wunderground v.1.15,2013-10-05 11:15:00,
2013-10-05 07:20:00,52.5,43.0,30.24,NE,53,0.0,0.0,70,0.00,,,0.00,Wunderground v.1.15,2013-10-05 11:20:00,
2013-10-05 07:25:00,52.5,43.0,30.25,NE,53,0.0,0.0,70,0.00,,,0.00,Wunderground v.1.15,2013-10-05 11:25:00,
2013-10-05 07:30:00,52.5,43.4,30.25,NE,53,0.0,0.0,71,0.00,,,0.00,Wunderground v.1.15,2013-10-05 11:30:00,
2013-10-05 07:35:00,52.5,43.4,30.25,NE,53,0.0,0.0,71,0.00,,,0.00,Wunderground v.1.15,2013-10-05 11:35:00,
2013-10-05 07:40:00,52.6,43.5,30.25,NE,53,0.0,0.0,71,0.00,,,0.00,Wunderground v.1.15,2013-10-05 11:40:00,
2013-10-05 07:45:00,52.6,42.7,30.24,ENE,71,0.0,0.0,69,0.00,,,0.00,Wunderground v.1.15,2013-10-05 11:45:00,
2013-10-05 07:55:00,52.9,42.2,30.24,East,83,0.0,0.0,67,0.00,,,0.00,Wunderground v.1.15,2013-10-05 11:55:00,
2013-10-05 08:00:00,53.1,42.8,30.25,East,82,0.0,0.0,68,0.00,,,0.00,Wunderground v.1.15,2013-10-05 12:00:00,
2013-10-05 08:05:00,53.2,42.5,30.25,East,82,0.0,1.0,67,0.00,,,0.00,Wunderground v.1.15,2013-10-05 12:05:00,
2013-10-05 08:10:00,53.3,43.4,30.25,East,82,0.0,0.0,69,0.00,,,0.00,Wunderground v.1.15,2013-10-05 12:10:00,
2013-10-05 08:15:00,53.3,43.4,30.26,East,82,0.0,0.0,69,0.00,,,0.00,Wunderground v.1.15,2013-10-05 12:15:00,
2013-10-05 08:20:00,53.3,43.8,30.26,East,82,0.0,0.0,70,0.00,,,0.00,Wunderground v.1.15,2013-10-05 12:20:00,
2013-10-05 08:25:00,53.2,45.8,30.26,East,82,0.0,0.0,76,0.00,,,0.00,Wunderground v.1.15,2013-10-05 12:25:00,
2013-10-05 08:30:00,53.2,46.2,30.26,East,82,0.0,0.0,77,0.00,,,0.00,Wunderground v.1.15,2013-10-05 12:30:00,
2013-10-05 08:35:00,53.3,46.6,30.25,East,82,0.0,0.0,78,0.00,,,0.00,Wunderground v.1.15,2013-10-05 12:35:00,
2013-10-05 08:40:00,53.3,46.3,30.25,East,82,0.0,0.0,77,0.00,,,0.00,Wunderground v.1.15,2013-10-05 12:40:00,
2013-10-05 08:45:00,53.5,47.1,30.25,East,82,0.0,0.0,79,0.00,,,0.00,Wunderground v.1.15,2013-10-05 12:45:00,
2013-10-05 08:50:00,53.6,45.5,30.25,East,82,0.0,0.0,74,0.00,,,0.00,Wunderground v.1.15,2013-10-05 12:50:00,
2013-10-05 08:55:00,53.7,44.5,30.25,East,82,0.0,0.0,71,0.00,,,0.00,Wunderground v.1.15,2013-10-05 12:55:00,
2013-10-05 09:00:00,53.9,45.8,30.25,East,82,0.0,0.0,74,0.00,,,0.00,Wunderground v.1.15,2013-10-05 13:00:00,
2013-10-05 09:05:00,54.1,46.7,30.25,East,82,0.0,1.0,76,0.00,,,0.00,Wunderground v.1.15,2013-10-05 13:05:00,
2013-10-05 09:10:00,54.2,45.4,30.25,East,80,0.0,0.0,72,0.00,,,0.00,Wunderground v.1.15,2013-10-05 13:10:00,
2013-10-05 09:15:00,54.2,45.0,30.25,ENE,70,1.0,1.0,71,0.00,,,0.00,Wunderground v.1.15,2013-10-05 13:15:00,
2013-10-05 09:20:00,54.3,44.3,30.24,ENE,70,1.0,1.0,69,0.00,,,0.00,Wunderground v.1.15,2013-10-05 13:20:00,
2013-10-05 09:25:00,54.5,44.2,30.24,NE,48,0.0,1.0,68,0.00,,,0.00,Wunderground v.1.15,2013-10-05 13:25:00,
2013-10-05 09:30:00,54.6,43.9,30.25,NE,46,1.0,1.0,67,0.00,,,0.00,Wunderground v.1.15,2013-10-05 13:30:00,
2013-10-05 09:35:00,54.7,44.3,30.25,NE,52,1.0,1.0,68,0.00,,,0.00,Wunderground v.1.15,2013-10-05 13:35:00,
2013-10-05 09:40:00,54.9,43.7,30.24,ESE,105,0.0,0.0,66,0.00,,,0.00,Wunderground v.1.15,2013-10-05 13:40:00,
2013-10-05 09:45:00,55.0,43.4,30.24,ENE,60,1.0,2.0,65,0.00,,,0.00,Wunderground v.1.15,2013-10-05 13:45:00,
2013-10-05 09:50:00,55.0,43.0,30.24,NNE,12,1.0,3.0,64,0.00,,,0.00,Wunderground v.1.15,2013-10-05 13:50:00,
2013-10-05 09:55:00,55.0,43.4,30.24,NNE,14,1.0,3.0,65,0.00,,,0.00,Wunderground v.1.15,2013-10-05 13:55:00,
2013-10-05 10:00:00,55.2,44.4,30.24,NNW,348,1.0,1.0,67,0.00,,,0.00,Wunderground v.1.15,2013-10-05 14:00:00,
2013-10-05 10:05:00,55.2,45.2,30.24,North,350,1.0,1.0,69,0.00,,,0.00,Wunderground v.1.15,2013-10-05 14:05:00,
2013-10-05 10:10:00,55.2,44.0,30.24,North,349,1.0,1.0,66,0.00,,,0.00,Wunderground v.1.15,2013-10-05 14:10:00,
2013-10-05 10:15:00,55.2,44.0,30.24,NNE,30,1.0,1.0,66,0.00,,,0.00,Wunderground v.1.15,2013-10-05 14:15:00,
2013-10-05 10:20:00,55.3,43.7,30.24,NNE,30,0.0,0.0,65,0.00,,,0.00,Wunderground v.1.15,2013-10-05 14:20:00,
2013-10-05 10:30:00,55.5,44.7,30.24,NNE,19,0.0,0.0,67,0.00,,,0.00,Wunderground v.1.15,2013-10-05 14:30:00,
2013-10-05 10:40:00,55.5,44.7,30.25,NNE,15,0.0,0.0,67,0.00,,,0.00,Wunderground v.1.15,2013-10-05 14:40:00,
2013-10-05 10:45:00,55.6,45.2,30.25,NNE,15,0.0,0.0,68,0.00,,,0.00,Wunderground v.1.15,2013-10-05 14:45:00,
2013-10-05 10:50:00,55.7,44.5,30.25,NNE,15,0.0,0.0,66,0.00,,,0.00,Wunderground v.1.15,2013-10-05 14:50:00,
2013-10-05 10:55:00,55.8,44.2,30.25,NNE,15,0.0,0.0,65,0.00,,,0.00,Wunderground v.1.15,2013-10-05 14:55:00,
2013-10-05 11:00:00,55.9,43.9,30.25,NNE,15,0.0,0.0,64,0.00,,,0.00,Wunderground v.1.15,2013-10-05 15:00:00,
2013-10-05 11:05:00,56.0,44.4,30.24,NNE,15,0.0,0.0,65,0.00,,,0.00,Wunderground v.1.15,2013-10-05 15:05:00,
2013-10-05 11:10:00,56.2,44.6,30.25,NNE,15,0.0,0.0,65,0.00,,,0.00,Wunderground v.1.15,2013-10-05 15:10:00,
2013-10-05 11:15:00,56.4,44.4,30.25,North,360,0.0,0.0,64,0.00,,,0.00,Wunderground v.1.15,2013-10-05 15:15:00,
2013-10-05 11:20:00,56.5,44.5,30.25,North,360,0.0,0.0,64,0.00,,,0.00,Wunderground v.1.15,2013-10-05 15:20:00,
2013-10-05 11:25:00,56.7,44.2,30.25,North,360,0.0,0.0,63,0.00,,,0.00,Wunderground v.1.15,2013-10-05 15:25:00,
2013-10-05 11:30:00,56.9,44.4,30.25,North,360,0.0,0.0,63,0.00,,,0.00,Wunderground v.1.15,2013-10-05 15:30:00,
2013-10-05 11:40:00,57.2,44.7,30.24,NE,44,0.0,0.0,63,0.00,,,0.00,Wunderground v.1.15,2013-10-05 15:40:00,
2013-10-05 11:45:00,57.7,45.2,30.24,NE,42,0.0,0.0,63,0.00,,,0.00,Wunderground v.1.15,2013-10-05 15:45:00,
2013-10-05 11:50:00,58.0,45.5,30.24,NE,42,0.0,0.0,63,0.00,,,0.00,Wunderground v.1.15,2013-10-05 15:50:00,
2013-10-05 12:00:00,58.2,45.7,30.23,NNE,12,1.0,1.0,63,0.00,,,0.00,Wunderground v.1.15,2013-10-05 16:00:00,
2013-10-05 12:05:00,58.2,46.1,30.23,NNE,12,1.0,1.0,64,0.00,,,0.00,Wunderground v.1.15,2013-10-05 16:05:00,
2013-10-05 12:10:00,58.4,45.8,30.23,ENE,57,0.0,1.0,63,0.00,,,0.00,Wunderground v.1.15,2013-10-05 16:10:00,
2013-10-05 12:20:00,58.4,45.4,30.23,ENE,63,1.0,1.0,62,0.00,,,0.00,Wunderground v.1.15,2013-10-05 16:20:00,
2013-10-05 12:30:00,58.7,46.5,30.23,ENE,57,0.0,0.0,64,0.00,,,0.00,Wunderground v.1.15,2013-10-05 16:30:00,
2013-10-05 12:35:00,58.8,46.2,30.23,ENE,57,0.0,0.0,63,0.00,,,0.00,Wunderground v.1.15,2013-10-05 16:35:00,
2013-10-05 12:45:00,59.1,45.7,30.23,ENE,57,0.0,0.0,61,0.00,,,0.00,Wunderground v.1.15,2013-10-05 16:45:00,
2013-10-05 12:50:00,59.1,46.9,30.22,ENE,57,0.0,0.0,64,0.00,,,0.00,Wunderground v.1.15,2013-10-05 16:50:00,
2013-10-05 12:55:00,59.1,46.5,30.22,NE,40,0.0,0.0,63,0.00,,,0.00,Wunderground v.1.15,2013-10-05 16:55:00,
2013-10-05 13:00:00,59.4,48.0,30.22,NE,40,0.0,0.0,66,0.00,,,0.00,Wunderground v.1.15,2013-10-05 17:00:00,
2013-10-05 13:10:00,59.5,47.3,30.22,NE,39,1.0,1.0,64,0.00,,,0.00,Wunderground v.1.15,2013-10-05 17:10:00,
2013-10-05 13:15:00,59.7,47.5,30.21,NNE,12,0.0,1.0,64,0.00,,,0.00,Wunderground v.1.15,2013-10-05 17:15:00,
2013-10-05 13:20:00,59.8,47.6,30.21,NNE,26,0.0,0.0,64,0.00,,,0.00,Wunderground v.1.15,2013-10-05 17:20:00,
2013-10-05 13:25:00,59.9,48.1,30.21,NNW,336,1.0,1.0,65,0.00,,,0.00,Wunderground v.1.15,2013-10-05 17:25:00,
2013-10-05 13:30:00,59.7,46.7,30.21,NE,34,1.0,1.0,62,0.00,,,0.00,Wunderground v.1.15,2013-10-05 17:30:00,
2013-10-05 13:35:00,59.4,46.8,30.22,NNE,24,2.0,2.0,63,0.00,,,0.00,Wunderground v.1.15,2013-10-05 17:35:00,
2013-10-05 13:40:00,59.3,47.1,30.22,North,5,1.0,1.0,64,0.00,,,0.00,Wunderground v.1.15,2013-10-05 17:40:00,
2013-10-05 13:50:00,59.6,47.0,30.21,North,5,0.0,0.0,63,0.00,,,0.00,Wunderground v.1.15,2013-10-05 17:50:00,
2013-10-05 14:00:00,59.6,46.6,30.21,North,5,0.0,0.0,62,0.00,,,0.00,Wunderground v.1.15,2013-10-05 18:00:00,
2013-10-05 14:05:00,59.6,47.0,30.21,North,5,0.0,0.0,63,0.00,,,0.00,Wunderground v.1.15,2013-10-05 18:05:00,
2013-10-05 14:10:00,59.7,47.5,30.21,North,5,0.0,0.0,64,0.00,,,0.00,Wunderground v.1.15,2013-10-05 18:10:00,
2013-10-05 14:15:00,59.9,47.7,30.20,North,5,0.0,0.0,64,0.00,,,0.00,Wunderground v.1.15,2013-10-05 18:15:00,
2013-10-05 14:25:00,60.3,48.1,30.20,West,279,0.0,0.0,64,0.00,,,0.00,Wunderground v.1.15,2013-10-05 18:25:00,
2013-10-05 14:30:00,60.5,48.3,30.20,WNW,290,0.0,0.0,64,0.00,,,0.00,Wunderground v.1.15,2013-10-05 18:30:00,
2013-10-05 14:35:00,60.7,48.9,30.20,WNW,290,0.0,0.0,65,0.00,,,0.00,Wunderground v.1.15,2013-10-05 18:35:00,
2013-10-05 14:45:00,61.2,48.9,30.20,WNW,290,0.0,1.0,64,0.00,,,0.00,Wunderground v.1.15,2013-10-05 18:45:00,
2013-10-05 14:55:00,61.7,48.1,30.19,SW,220,0.0,0.0,61,0.00,,,0.00,Wunderground v.1.15,2013-10-05 18:55:00,
2013-10-05 15:00:00,61.7,48.1,30.20,SW,220,0.0,0.0,61,0.00,,,0.00,Wunderground v.1.15,2013-10-05 19:00:00,
2013-10-05 15:05:00,61.5,45.2,30.20,SW,220,0.0,0.0,55,0.00,,,0.00,Wunderground v.1.15,2013-10-05 19:05:00,
2013-10-05 15:10:00,61.5,47.5,30.20,SW,220,0.0,0.0,60,0.00,,,0.00,Wunderground v.1.15,2013-10-05 19:10:00,
2013-10-05 15:15:00,61.6,47.1,30.20,SW,220,0.0,0.0,59,0.00,,,0.00,Wunderground v.1.15,2013-10-05 19:15:00,
2013-10-05 15:20:00,61.6,48.4,30.20,SW,220,0.0,0.0,62,0.00,,,0.00,Wunderground v.1.15,2013-10-05 19:20:00,
2013-10-05 15:25:00,61.5,48.4,30.20,SW,220,0.0,0.0,62,0.00,,,0.00,Wunderground v.1.15,2013-10-05 19:25:00,
2013-10-05 15:30:00,61.3,49.0,30.20,SW,220,0.0,0.0,64,0.00,,,0.00,Wunderground v.1.15,2013-10-05 19:30:00,
2013-10-05 15:40:00,61.2,49.7,30.20,SW,220,0.0,0.0,66,0.00,,,0.00,Wunderground v.1.15,2013-10-05 19:40:00,
2013-10-05 15:45:00,61.4,49.1,30.20,SW,220,0.0,0.0,64,0.00,,,0.00,Wunderground v.1.15,2013-10-05 19:45:00,
2013-10-05 15:50:00,61.5,49.6,30.20,SW,220,0.0,0.0,65,0.00,,,0.00,Wunderground v.1.15,2013-10-05 19:50:00,
2013-10-05 16:00:00,62.1,48.5,30.19,WSW,237,1.0,1.0,61,0.00,,,0.00,Wunderground v.1.15,2013-10-05 20:00:00,
2013-10-05 16:05:00,62.3,48.2,30.19,SW,236,0.0,1.0,60,0.00,,,0.00,Wunderground v.1.15,2013-10-05 20:05:00,
2013-10-05 16:10:00,62.2,48.6,30.20,WNW,298,0.0,0.0,61,0.00,,,0.00,Wunderground v.1.15,2013-10-05 20:10:00,
2013-10-05 16:15:00,62.0,49.3,30.20,WNW,303,0.0,3.0,63,0.00,,,0.00,Wunderground v.1.15,2013-10-05 20:15:00,
2013-10-05 16:20:00,61.6,48.9,30.20,NW,319,0.0,0.0,63,0.00,,,0.00,Wunderground v.1.15,2013-10-05 20:20:00,
2013-10-05 16:25:00,61.2,49.3,30.20,NW,319,0.0,0.0,65,0.00,,,0.00,Wunderground v.1.15,2013-10-05 20:25:00,
2013-10-05 16:30:00,60.9,49.9,30.20,NW,319,0.0,0.0,67,0.00,,,0.00,Wunderground v.1.15,2013-10-05 20:30:00,
2013-10-05 16:40:00,60.5,49.9,30.20,NW,319,0.0,0.0,68,0.00,,,0.00,Wunderground v.1.15,2013-10-05 20:40:00,
2013-10-05 16:45:00,60.4,50.2,30.20,NW,319,0.0,0.0,69,0.00,,,0.00,Wunderground v.1.15,2013-10-05 20:45:00,
2013-10-05 16:55:00,60.3,51.2,30.20,NW,319,0.0,0.0,72,0.00,,,0.00,Wunderground v.1.15,2013-10-05 20:55:00,
2013-10-05 17:00:00,60.3,51.6,30.20,NW,319,0.0,0.0,73,0.00,,,0.00,Wunderground v.1.15,2013-10-05 21:00:00,
2013-10-05 17:05:00,60.2,51.1,30.20,NW,313,0.0,0.0,72,0.00,,,0.00,Wunderground v.1.15,2013-10-05 21:05:00,
2013-10-05 17:10:00,60.1,50.3,30.20,NW,313,0.0,0.0,70,0.00,,,0.00,Wunderground v.1.15,2013-10-05 21:10:00,
2013-10-05 17:15:00,59.9,50.8,30.20,NW,311,0.0,0.0,72,0.00,,,0.00,Wunderground v.1.15,2013-10-05 21:15:00,
2013-10-05 17:20:00,59.8,50.4,30.20,NW,311,0.0,0.0,71,0.00,,,0.00,Wunderground v.1.15,2013-10-05 21:20:00,
2013-10-05 17:25:00,59.6,50.2,30.20,NW,311,0.0,0.0,71,0.00,,,0.00,Wunderground v.1.15,2013-10-05 21:25:00,
2013-10-05 17:30:00,59.4,51.1,30.20,NW,311,0.0,0.0,74,0.00,,,0.00,Wunderground v.1.15,2013-10-05 21:30:00,
2013-10-05 17:40:00,58.9,51.0,30.20,NW,311,0.0,0.0,75,0.00,,,0.00,Wunderground v.1.15,2013-10-05 21:40:00,
2013-10-05 17:45:00,58.7,51.5,30.20,NW,312,0.0,0.0,77,0.00,,,0.00,Wunderground v.1.15,2013-10-05 21:45:00,
2013-10-05 17:50:00,58.5,51.0,30.20,NW,312,0.0,0.0,76,0.00,,,0.00,Wunderground v.1.15,2013-10-05 21:50:00,
2013-10-05 17:55:00,58.3,50.8,30.21,NW,312,0.0,0.0,76,0.00,,,0.00,Wunderground v.1.15,2013-10-05 21:55:00,
2013-10-05 18:00:00,58.1,51.3,30.21,NW,312,0.0,0.0,78,0.00,,,0.00,Wunderground v.1.15,2013-10-05 22:00:00,
2013-10-05 18:05:00,57.8,50.6,30.21,South,182,0.0,1.0,77,0.00,,,0.00,Wunderground v.1.15,2013-10-05 22:05:00,
2013-10-05 18:10:00,57.5,51.0,30.21,South,182,0.0,0.0,79,0.00,,,0.00,Wunderground v.1.15,2013-10-05 22:10:00,
2013-10-05 18:15:00,57.2,51.1,30.22,South,182,0.0,0.0,80,0.00,,,0.00,Wunderground v.1.15,2013-10-05 22:15:00,
2013-10-05 18:20:00,57.0,50.9,30.22,South,182,0.0,0.0,80,0.00,,,0.00,Wunderground v.1.15,2013-10-05 22:20:00,
2013-10-05 18:25:00,56.8,50.7,30.22,South,182,0.0,0.0,80,0.00,,,0.00,Wunderground v.1.15,2013-10-05 22:25:00,
2013-10-05 18:30:00,56.7,50.6,30.22,South,182,0.0,0.0,80,0.00,,,0.00,Wunderground v.1.15,2013-10-05 22:30:00,
2013-10-05 18:35:00,56.6,50.5,30.22,South,182,0.0,0.0,80,0.00,,,0.00,Wunderground v.1.15,2013-10-05 22:35:00,
2013-10-05 18:40:00,56.6,50.8,30.22,South,182,0.0,0.0,81,0.00,,,0.00,Wunderground v.1.15,2013-10-05 22:40:00,
2013-10-05 18:45:00,56.4,50.3,30.22,South,182,0.0,0.0,80,0.00,,,0.00,Wunderground v.1.15,2013-10-05 22:45:00,
2013-10-05 18:50:00,56.3,50.2,30.22,South,182,0.0,0.0,80,0.00,,,0.00,Wunderground v.1.15,2013-10-05 22:50:00,
2013-10-05 18:55:00,56.2,50.1,30.22,South,182,0.0,0.0,80,0.00,,,0.00,Wunderground v.1.15,2013-10-05 22:55:00,
2013-10-05 19:00:00,56.3,50.2,30.22,South,182,0.0,0.0,80,0.00,,,0.00,Wunderground v.1.15,2013-10-05 23:00:00,
2013-10-05 19:10:00,56.1,49.7,30.22,South,182,0.0,0.0,79,0.00,,,0.00,Wunderground v.1.15,2013-10-05 23:10:00,
2013-10-05 19:15:00,56.0,49.9,30.22,South,182,0.0,0.0,80,0.00,,,0.00,Wunderground v.1.15,2013-10-05 23:15:00,
2013-10-05 19:25:00,55.8,50.1,30.22,South,182,0.0,1.0,81,0.00,,,0.00,Wunderground v.1.15,2013-10-05 23:25:00,
2013-10-05 19:30:00,55.7,50.0,30.22,South,182,0.0,0.0,81,0.00,,,0.00,Wunderground v.1.15,2013-10-05 23:30:00,
2013-10-05 19:35:00,55.6,49.5,30.22,South,182,0.0,0.0,80,0.00,,,0.00,Wunderground v.1.15,2013-10-05 23:35:00,
2013-10-05 19:40:00,55.6,49.9,30.22,South,182,0.0,0.0,81,0.00,,,0.00,Wunderground v.1.15,2013-10-05 23:40:00,
2013-10-05 19:45:00,55.5,50.1,30.22,South,182,0.0,0.0,82,0.00,,,0.00,Wunderground v.1.15,2013-10-05 23:45:00,
2013-10-05 19:50:00,55.5,49.8,30.22,South,182,0.0,0.0,81,0.00,,,0.00,Wunderground v.1.15,2013-10-05 23:50:00,
2013-10-05 19:55:00,55.6,49.9,30.22,South,182,0.0,0.0,81,0.00,,,0.00,Wunderground v.1.15,2013-10-05 23:55:00,
2013-10-05 20:00:00,55.7,50.0,30.22,South,182,0.0,0.0,81,0.00,,,0.00,Wunderground v.1.15,2013-10-06 00:00:00,
2013-10-05 20:05:00,55.9,49.5,30.22,South,187,0.0,0.0,79,0.00,,,0.00,Wunderground v.1.15,2013-10-06 00:05:00,
2013-10-05 20:10:00,56.3,49.9,30.22,South,187,0.0,0.0,79,0.00,,,0.00,Wunderground v.1.15,2013-10-06 00:10:00,
2013-10-05 20:15:00,56.6,49.5,30.22,WSW,237,0.0,0.0,77,0.00,,,0.00,Wunderground v.1.15,2013-10-06 00:15:00,
2013-10-05 20:20:00,56.8,49.7,30.23,WSW,237,0.0,0.0,77,0.00,,,0.00,Wunderground v.1.15,2013-10-06 00:20:00,
2013-10-05 20:25:00,56.8,50.7,30.22,SW,228,0.0,0.0,80,0.00,,,0.00,Wunderground v.1.15,2013-10-06 00:25:00,
2013-10-05 20:30:00,56.5,50.4,30.22,SW,228,0.0,0.0,80,0.00,,,0.00,Wunderground v.1.15,2013-10-06 00:30:00,
2013-10-05 20:40:00,56.5,49.4,30.22,SW,229,0.0,0.0,77,0.00,,,0.00,Wunderground v.1.15,2013-10-06 00:40:00,
2013-10-05 20:45:00,56.7,49.9,30.22,SW,229,0.0,0.0,78,0.00,,,0.00,Wunderground v.1.15,2013-10-06 00:45:00,
2013-10-05 20:50:00,56.8,50.4,30.22,SW,229,0.0,0.0,79,0.00,,,0.00,Wunderground v.1.15,2013-10-06 00:50:00,
2013-10-05 20:55:00,56.6,50.8,30.22,SW,229,0.0,0.0,81,0.00,,,0.00,Wunderground v.1.15,2013-10-06 00:55:00,
2013-10-05 21:00:00,56.4,50.0,30.23,SW,229,0.0,0.0,79,0.00,,,0.00,Wunderground v.1.15,2013-10-06 01:00:00,
2013-10-05 21:10:00,56.2,50.8,30.23,SW,229,0.0,0.0,82,0.00,,,0.00,Wunderground v.1.15,2013-10-06 01:10:00,
2013-10-05 21:20:00,55.9,50.5,30.23,SW,229,0.0,0.0,82,0.00,,,0.00,Wunderground v.1.15,2013-10-06 01:20:00,
2013-10-05 21:25:00,55.7,50.3,30.23,SW,229,0.0,0.0,82,0.00,,,0.00,Wunderground v.1.15,2013-10-06 01:25:00,
2013-10-05 21:30:00,55.5,50.1,30.23,SW,227,0.0,0.0,82,0.00,,,0.00,Wunderground v.1.15,2013-10-06 01:30:00,
2013-10-05 21:35:00,55.4,50.0,30.23,SW,227,0.0,0.0,82,0.00,,,0.00,Wunderground v.1.15,2013-10-06 01:35:00,
2013-10-05 21:40:00,55.3,50.2,30.24,SW,227,0.0,0.0,83,0.00,,,0.00,Wunderground v.1.15,2013-10-06 01:40:00,
2013-10-05 21:45:00,55.1,50.0,30.24,SW,227,0.0,0.0,83,0.00,,,0.00,Wunderground v.1.15,2013-10-06 01:45:00,
2013-10-05 21:50:00,54.9,50.2,30.24,SW,227,0.0,0.0,84,0.00,,,0.00,Wunderground v.1.15,2013-10-06 01:50:00,
2013-10-05 21:55:00,54.8,49.7,30.24,SW,227,0.0,0.0,83,0.00,,,0.00,Wunderground v.1.15,2013-10-06 01:55:00,
2013-10-05 22:00:00,54.7,49.6,30.24,SW,227,0.0,0.0,83,0.00,,,0.00,Wunderground v.1.15,2013-10-06 02:00:00,
2013-10-05 22:10:00,54.5,49.8,30.25,SW,227,0.0,0.0,84,0.00,,,0.00,Wunderground v.1.15,2013-10-06 02:10:00,
2013-10-05 22:15:00,54.3,49.6,30.25,SW,227,0.0,0.0,84,0.00,,,0.00,Wunderground v.1.15,2013-10-06 02:15:00,
2013-10-05 22:20:00,54.0,49.3,30.25,SW,227,0.0,0.0,84,0.00,,,0.00,Wunderground v.1.15,2013-10-06 02:20:00,
2013-10-05 22:25:00,53.6,49.2,30.25,SW,227,0.0,0.0,85,0.00,,,0.00,Wunderground v.1.15,2013-10-06 02:25:00,
2013-10-05 22:30:00,53.2,48.5,30.25,SW,227,0.0,0.0,84,0.00,,,0.00,Wunderground v.1.15,2013-10-06 02:30:00,
2013-10-05 22:35:00,52.9,48.2,30.25,SW,227,0.0,0.0,84,0.00,,,0.00,Wunderground v.1.15,2013-10-06 02:35:00,
2013-10-05 22:40:00,52.7,48.3,30.25,SW,227,0.0,0.0,85,0.00,,,0.00,Wunderground v.1.15,2013-10-06 02:40:00,
2013-10-05 22:50:00,52.5,48.1,30.25,SW,227,0.0,0.0,85,0.00,,,0.00,Wunderground v.1.15,2013-10-06 02:50:00,
2013-10-05 22:55:00,52.5,48.1,30.25,SW,227,0.0,0.0,85,0.00,,,0.00,Wunderground v.1.15,2013-10-06 02:55:00,
2013-10-05 23:00:00,52.4,48.0,30.26,SW,227,0.0,0.0,85,0.00,,,0.00,Wunderground v.1.15,2013-10-06 03:00:00,
2013-10-05 23:05:00,52.3,47.9,30.25,SW,227,0.0,0.0,85,0.00,,,0.00,Wunderground v.1.15,2013-10-06 03:05:00,
2013-10-05 23:10:00,52.3,49.2,30.25,SW,227,0.0,0.0,89,0.00,,,0.00,Wunderground v.1.15,2013-10-06 03:10:00,
2013-10-05 23:15:00,52.1,48.0,30.25,SW,227,0.0,0.0,86,0.00,,,0.00,Wunderground v.1.15,2013-10-06 03:15:00,
2013-10-05 23:20:00,51.9,48.2,30.25,SW,226,0.0,2.0,87,0.00,,,0.00,Wunderground v.1.15,2013-10-06 03:20:00,
2013-10-05 23:25:00,51.6,47.5,30.25,SW,226,1.0,2.0,86,0.00,,,0.00,Wunderground v.1.15,2013-10-06 03:25:00,
2013-10-05 23:35:00,51.7,47.6,30.26,SW,226,0.0,1.0,86,0.00,,,0.00,Wunderground v.1.15,2013-10-06 03:35:00,
2013-10-05 23:45:00,51.9,47.5,30.26,SW,226,0.0,0.0,85,0.00,,,0.00,Wunderground v.1.15,2013-10-06 03:45:00,
2013-10-05 23:50:00,52.0,47.9,30.26,SW,226,0.0,1.0,86,0.00,,,0.00,Wunderground v.1.15,2013-10-06 03:50:00,
2013-10-05 23:55:00,51.8,47.7,30.26,SW,226,0.0,1.0,86,0.00,,,0.00,Wunderground v.1.15,2013-10-06 03:55:00,